sensor_id;sensor_type;location;lat;lon;timestamp;pressure;altitude;pressure_sealevel;temperature;humidity
26087;BME280;13851;43.434;28.338;2022-09-17T00:00:37;98916.28;;;23.35;100.00
26087;BME280;13851;43.434;28.338;2022-09-17T00:03:03;98853.59;;;23.02;100.00
26087;BME280;13851;43.434;28.338;2022-09-17T00:05:33;98922.13;;;23.33;100.00
26087;BME280;13851;43.434;28.338;2022-09-17T00:08:02;98921.03;;;23.34;100.00
26087;BME280;13851;43.434;28.338;2022-09-17T00:10:29;98772.97;;;22.30;100.00
26087;BME280;13851;43.434;28.338;2022-09-17T00:12:54;98928.25;;;23.41;100.00
26087;BME280;13851;43.434;28.338;2022-09-17T00:15:22;98923.03;;;23.29;100.00
26087;BME280;13851;43.434;28.338;2022-09-17T00:17:53;98927.84;;;23.08;100.00
26087;BME280;13851;43.434;28.338;2022-09-17T00:20:19;98930.50;;;22.79;100.00
26087;BME280;13851;43.434;28.338;2022-09-17T00:22:45;98920.09;;;23.00;100.00
26087;BME280;13851;43.434;28.338;2022-09-17T00:25:11;98911.13;;;23.03;100.00
26087;BME280;13851;43.434;28.338;2022-09-17T00:27:37;98910.97;;;23.28;100.00
26087;BME280;13851;43.434;28.338;2022-09-17T00:30:03;98937.06;;;23.63;100.00
26087;BME280;13851;43.434;28.338;2022-09-17T00:32:29;98783.34;;;22.79;100.00
26087;BME280;13851;43.434;28.338;2022-09-17T00:34:54;98928.75;;;23.92;100.00
26087;BME280;13851;43.434;28.338;2022-09-17T00:37:21;98924.34;;;23.81;100.00
26087;BME280;13851;43.434;28.338;2022-09-17T00:39:46;98916.28;;;23.74;100.00
26087;BME280;13851;43.434;28.338;2022-09-17T00:42:13;98904.63;;;23.62;100.00
26087;BME280;13851;43.434;28.338;2022-09-17T00:44:43;98910.41;;;23.76;100.00
26087;BME280;13851;43.434;28.338;2022-09-17T00:49:48;98900.97;;;23.67;100.00
26087;BME280;13851;43.434;28.338;2022-09-17T00:52:20;98797.13;;;23.10;100.00
26087;BME280;13851;43.434;28.338;2022-09-17T00:54:48;98908.91;;;23.89;100.00
26087;BME280;13851;43.434;28.338;2022-09-17T00:57:16;98893.69;;;23.71;100.00
26087;BME280;13851;43.434;28.338;2022-09-17T00:59:44;98897.75;;;23.83;100.00
26087;BME280;13851;43.434;28.338;2022-09-17T01:02:10;98881.72;;;23.65;100.00
26087;BME280;13851;43.434;28.338;2022-09-17T01:04:36;98898.19;;;23.61;100.00
26087;BME280;13851;43.434;28.338;2022-09-17T01:07:22;98909.09;;;23.58;100.00
26087;BME280;13851;43.434;28.338;2022-09-17T01:10:00;98903.59;;;23.48;100.00
26087;BME280;13851;43.434;28.338;2022-09-17T01:12:42;98921.09;;;23.69;100.00
26087;BME280;13851;43.434;28.338;2022-09-17T01:15:20;98747.19;;;22.54;100.00
26087;BME280;13851;43.434;28.338;2022-09-17T01:26:24;98884.19;;;23.22;100.00
26087;BME280;13851;43.434;28.338;2022-09-17T01:29:15;98706.84;;;22.31;100.00
26087;BME280;13851;43.434;28.338;2022-09-17T01:34:42;98739.38;;;22.51;100.00
26087;BME280;13851;43.434;28.338;2022-09-17T01:37:36;98901.94;;;23.47;100.00
26087;BME280;13851;43.434;28.338;2022-09-17T01:40:38;98891.38;;;23.33;100.00
26087;BME280;13851;43.434;28.338;2022-09-17T01:43:15;98864.59;;;23.27;100.00
26087;BME280;13851;43.434;28.338;2022-09-17T01:45:50;98885.56;;;23.30;100.00
26087;BME280;13851;43.434;28.338;2022-09-17T01:48:22;98885.28;;;23.26;100.00
26087;BME280;13851;43.434;28.338;2022-09-17T01:51:14;98725.50;;;22.36;100.00
26087;BME280;13851;43.434;28.338;2022-09-17T01:56:55;98884.22;;;23.17;100.00
26087;BME280;13851;43.434;28.338;2022-09-17T01:59:28;98884.78;;;23.19;100.00
26087;BME280;13851;43.434;28.338;2022-09-17T02:02:22;98884.72;;;23.29;100.00
26087;BME280;13851;43.434;28.338;2022-09-17T02:04:56;98835.91;;;23.17;100.00
26087;BME280;13851;43.434;28.338;2022-09-17T02:07:24;98844.06;;;23.47;100.00
26087;BME280;13851;43.434;28.338;2022-09-17T02:09:59;98843.94;;;23.63;100.00
26087;BME280;13851;43.434;28.338;2022-09-17T02:12:33;98873.41;;;23.84;100.00
26087;BME280;13851;43.434;28.338;2022-09-17T02:15:02;98844.13;;;23.76;100.00
26087;BME280;13851;43.434;28.338;2022-09-17T02:17:45;98872.13;;;23.71;100.00
26087;BME280;13851;43.434;28.338;2022-09-17T02:20:12;98846.91;;;23.42;100.00
26087;BME280;13851;43.434;28.338;2022-09-17T02:22:47;98857.94;;;23.57;100.00
26087;BME280;13851;43.434;28.338;2022-09-17T02:27:57;98668.03;;;22.35;100.00
26087;BME280;13851;43.434;28.338;2022-09-17T02:30:26;98856.03;;;23.53;100.00
26087;BME280;13851;43.434;28.338;2022-09-17T02:32:53;98851.47;;;23.67;100.00
26087;BME280;13851;43.434;28.338;2022-09-17T02:35:19;98832.34;;;23.79;100.00
26087;BME280;13851;43.434;28.338;2022-09-17T02:37:44;98803.97;;;23.62;100.00
26087;BME280;13851;43.434;28.338;2022-09-17T02:40:14;98823.38;;;23.82;100.00
26087;BME280;13851;43.434;28.338;2022-09-17T02:45:43;98795.19;;;23.45;100.00
26087;BME280;13851;43.434;28.338;2022-09-17T02:58:39;98824.41;;;23.57;100.00
26087;BME280;13851;43.434;28.338;2022-09-17T03:01:13;98823.97;;;23.45;100.00
26087;BME280;13851;43.434;28.338;2022-09-17T03:03:45;98802.13;;;23.47;100.00
26087;BME280;13851;43.434;28.338;2022-09-17T03:06:14;98788.28;;;23.32;100.00
26087;BME280;13851;43.434;28.338;2022-09-17T03:08:41;98807.47;;;23.44;100.00
26087;BME280;13851;43.434;28.338;2022-09-17T03:11:08;98727.94;;;22.97;100.00
26087;BME280;13851;43.434;28.338;2022-09-17T03:13:37;98810.59;;;23.37;100.00
26087;BME280;13851;43.434;28.338;2022-09-17T03:16:03;98822.25;;;23.49;100.00
26087;BME280;13851;43.434;28.338;2022-09-17T03:18:29;98798.63;;;23.31;100.00
26087;BME280;13851;43.434;28.338;2022-09-17T03:20:55;98799.72;;;23.35;100.00
26087;BME280;13851;43.434;28.338;2022-09-17T03:23:20;98720.66;;;23.01;100.00
26087;BME280;13851;43.434;28.338;2022-09-17T03:25:46;98800.34;;;23.61;100.00
26087;BME280;13851;43.434;28.338;2022-09-17T03:28:15;98784.38;;;23.67;100.00
26087;BME280;13851;43.434;28.338;2022-09-17T03:30:43;98778.81;;;23.91;100.00
26087;BME280;13851;43.434;28.338;2022-09-17T03:33:09;98791.63;;;23.97;100.00
26087;BME280;13851;43.434;28.338;2022-09-17T03:35:34;98815.00;;;24.30;100.00
26087;BME280;13851;43.434;28.338;2022-09-17T03:37:59;98792.25;;;24.42;100.00
26087;BME280;13851;43.434;28.338;2022-09-17T03:40:25;98801.09;;;24.49;100.00
26087;BME280;13851;43.434;28.338;2022-09-17T03:42:51;98630.16;;;23.55;100.00
26087;BME280;13851;43.434;28.338;2022-09-17T03:45:16;98798.34;;;24.68;100.00
26087;BME280;13851;43.434;28.338;2022-09-17T03:47:42;98648.91;;;23.78;100.00
26087;BME280;13851;43.434;28.338;2022-09-17T03:50:08;98790.31;;;24.80;100.00
26087;BME280;13851;43.434;28.338;2022-09-17T03:52:33;98773.34;;;24.53;100.00
26087;BME280;13851;43.434;28.338;2022-09-17T03:54:59;98778.47;;;24.46;100.00
26087;BME280;13851;43.434;28.338;2022-09-17T03:57:25;98632.34;;;23.34;100.00
26087;BME280;13851;43.434;28.338;2022-09-17T03:59:50;98587.94;;;22.74;100.00
26087;BME280;13851;43.434;28.338;2022-09-17T04:02:16;98798.47;;;23.86;100.00
26087;BME280;13851;43.434;28.338;2022-09-17T04:04:41;98818.03;;;23.86;100.00
26087;BME280;13851;43.434;28.338;2022-09-17T04:07:07;98804.53;;;23.64;100.00
26087;BME280;13851;43.434;28.338;2022-09-17T04:09:34;98801.22;;;23.57;100.00
26087;BME280;13851;43.434;28.338;2022-09-17T04:12:00;98824.91;;;23.65;100.00
26087;BME280;13851;43.434;28.338;2022-09-17T04:14:26;98802.81;;;23.68;100.00
26087;BME280;13851;43.434;28.338;2022-09-17T04:16:51;98801.75;;;23.59;100.00
26087;BME280;13851;43.434;28.338;2022-09-17T04:19:17;98818.97;;;23.76;100.00
26087;BME280;13851;43.434;28.338;2022-09-17T04:21:42;98768.00;;;23.50;100.00
26087;BME280;13851;43.434;28.338;2022-09-17T04:24:11;98807.81;;;23.71;100.00
26087;BME280;13851;43.434;28.338;2022-09-17T04:26:36;98824.97;;;23.89;100.00
26087;BME280;13851;43.434;28.338;2022-09-17T04:29:02;98784.69;;;23.90;100.00
26087;BME280;13851;43.434;28.338;2022-09-17T04:31:28;98798.16;;;23.88;100.00
26087;BME280;13851;43.434;28.338;2022-09-17T04:33:53;98782.41;;;23.63;100.00
26087;BME280;13851;43.434;28.338;2022-09-17T04:36:19;98789.44;;;23.60;100.00
26087;BME280;13851;43.434;28.338;2022-09-17T04:38:48;98784.47;;;23.52;100.00
26087;BME280;13851;43.434;28.338;2022-09-17T04:41:14;98764.63;;;23.24;100.00
26087;BME280;13851;43.434;28.338;2022-09-17T04:43:40;98803.84;;;23.43;100.00
26087;BME280;13851;43.434;28.338;2022-09-17T04:46:05;98768.69;;;23.37;100.00
26087;BME280;13851;43.434;28.338;2022-09-17T04:48:31;98773.25;;;23.57;100.00
26087;BME280;13851;43.434;28.338;2022-09-17T04:50:56;98834.88;;;24.05;100.00
26087;BME280;13851;43.434;28.338;2022-09-17T04:53:23;98800.63;;;24.18;100.00
26087;BME280;13851;43.434;28.338;2022-09-17T04:55:48;98779.31;;;24.22;100.00
26087;BME280;13851;43.434;28.338;2022-09-17T04:58:16;98790.88;;;24.40;100.00
26087;BME280;13851;43.434;28.338;2022-09-17T05:00:42;98787.28;;;24.58;100.00
26087;BME280;13851;43.434;28.338;2022-09-17T05:03:07;98790.47;;;24.70;100.00
26087;BME280;13851;43.434;28.338;2022-09-17T05:05:36;98793.88;;;24.86;100.00
26087;BME280;13851;43.434;28.338;2022-09-17T05:08:05;98776.00;;;24.63;100.00
26087;BME280;13851;43.434;28.338;2022-09-17T05:10:32;98791.22;;;24.57;100.00
26087;BME280;13851;43.434;28.338;2022-09-17T05:12:58;98632.41;;;23.53;100.00
26087;BME280;13851;43.434;28.338;2022-09-17T05:15:25;98755.00;;;24.18;100.00
26087;BME280;13851;43.434;28.338;2022-09-17T05:17:54;98768.56;;;24.29;100.00
26087;BME280;13851;43.434;28.338;2022-09-17T05:20:19;98767.81;;;24.48;100.00
26087;BME280;13851;43.434;28.338;2022-09-17T05:22:50;98760.63;;;24.42;100.00
26087;BME280;13851;43.434;28.338;2022-09-17T05:25:18;98769.47;;;24.49;100.00
26087;BME280;13851;43.434;28.338;2022-09-17T05:27:44;98785.84;;;24.60;100.00
26087;BME280;13851;43.434;28.338;2022-09-17T05:30:10;98762.59;;;24.60;100.00
26087;BME280;13851;43.434;28.338;2022-09-17T05:32:36;98781.06;;;24.61;100.00
26087;BME280;13851;43.434;28.338;2022-09-17T05:35:04;98711.66;;;24.39;100.00
26087;BME280;13851;43.434;28.338;2022-09-17T05:37:29;98752.78;;;24.62;100.00
26087;BME280;13851;43.434;28.338;2022-09-17T05:39:55;98760.22;;;24.72;100.00
26087;BME280;13851;43.434;28.338;2022-09-17T05:42:20;98631.34;;;23.97;100.00
26087;BME280;13851;43.434;28.338;2022-09-17T05:44:46;98757.69;;;24.89;100.00
26087;BME280;13851;43.434;28.338;2022-09-17T05:47:12;98725.59;;;24.63;100.00
26087;BME280;13851;43.434;28.338;2022-09-17T05:49:37;98762.47;;;25.08;100.00
26087;BME280;13851;43.434;28.338;2022-09-17T05:52:03;98752.94;;;25.09;100.00
26087;BME280;13851;43.434;28.338;2022-09-17T05:54:29;98748.47;;;25.08;100.00
26087;BME280;13851;43.434;28.338;2022-09-17T05:56:54;98754.53;;;25.15;100.00
26087;BME280;13851;43.434;28.338;2022-09-17T05:59:20;98743.41;;;25.10;100.00
26087;BME280;13851;43.434;28.338;2022-09-17T06:01:47;98765.63;;;24.82;100.00
26087;BME280;13851;43.434;28.338;2022-09-17T06:04:13;98594.91;;;23.54;100.00
26087;BME280;13851;43.434;28.338;2022-09-17T06:06:38;98765.78;;;24.29;100.00
26087;BME280;13851;43.434;28.338;2022-09-17T06:09:09;98766.72;;;24.20;100.00
26087;BME280;13851;43.434;28.338;2022-09-17T06:11:35;98763.72;;;24.16;100.00
26087;BME280;13851;43.434;28.338;2022-09-17T06:14:01;98738.69;;;24.25;100.00
26087;BME280;13851;43.434;28.338;2022-09-17T06:16:29;98774.88;;;24.64;100.00
26087;BME280;13851;43.434;28.338;2022-09-17T06:18:58;98746.72;;;24.74;100.00
26087;BME280;13851;43.434;28.338;2022-09-17T06:21:23;98763.00;;;24.91;100.00
26087;BME280;13851;43.434;28.338;2022-09-17T06:23:49;98759.56;;;24.56;100.00
26087;BME280;13851;43.434;28.338;2022-09-17T06:26:15;98689.66;;;23.84;100.00
26087;BME280;13851;43.434;28.338;2022-09-17T06:28:41;98787.56;;;24.32;100.00
26087;BME280;13851;43.434;28.338;2022-09-17T06:31:08;98773.84;;;24.31;100.00
26087;BME280;13851;43.434;28.338;2022-09-17T06:33:34;98785.50;;;24.43;100.00
26087;BME280;13851;43.434;28.338;2022-09-17T06:36:03;98780.22;;;24.60;100.00
26087;BME280;13851;43.434;28.338;2022-09-17T06:38:30;98780.03;;;24.57;100.00
26087;BME280;13851;43.434;28.338;2022-09-17T06:40:59;98767.75;;;24.90;100.00
26087;BME280;13851;43.434;28.338;2022-09-17T06:43:25;98763.06;;;25.05;100.00
26087;BME280;13851;43.434;28.338;2022-09-17T06:46:02;98751.47;;;24.93;100.00
26087;BME280;13851;43.434;28.338;2022-09-17T06:48:30;98784.88;;;25.08;100.00
26087;BME280;13851;43.434;28.338;2022-09-17T06:51:01;98762.16;;;24.90;100.00
26087;BME280;13851;43.434;28.338;2022-09-17T06:53:28;98788.25;;;25.10;100.00
26087;BME280;13851;43.434;28.338;2022-09-17T06:55:56;98774.50;;;25.27;100.00
26087;BME280;13851;43.434;28.338;2022-09-17T06:58:23;98785.28;;;25.53;100.00
26087;BME280;13851;43.434;28.338;2022-09-17T07:00:49;98762.84;;;25.53;100.00
26087;BME280;13851;43.434;28.338;2022-09-17T07:03:15;98772.41;;;25.84;100.00
26087;BME280;13851;43.434;28.338;2022-09-17T07:05:42;98611.47;;;25.06;100.00
26087;BME280;13851;43.434;28.338;2022-09-17T07:08:08;98784.09;;;26.19;100.00
26087;BME280;13851;43.434;28.338;2022-09-17T07:10:35;98744.03;;;26.41;100.00
26087;BME280;13851;43.434;28.338;2022-09-17T07:13:01;98751.38;;;26.42;100.00
26087;BME280;13851;43.434;28.338;2022-09-17T07:15:26;98616.03;;;25.76;100.00
26087;BME280;13851;43.434;28.338;2022-09-17T07:17:51;98763.91;;;26.72;100.00
26087;BME280;13851;43.434;28.338;2022-09-17T07:20:18;98779.38;;;26.83;100.00
26087;BME280;13851;43.434;28.338;2022-09-17T07:22:43;98750.16;;;27.07;100.00
26087;BME280;13851;43.434;28.338;2022-09-17T07:25:09;98577.47;;;25.96;100.00
26087;BME280;13851;43.434;28.338;2022-09-17T07:27:35;98753.97;;;26.88;100.00
26087;BME280;13851;43.434;28.338;2022-09-17T07:30:01;98748.41;;;26.97;100.00
26087;BME280;13851;43.434;28.338;2022-09-17T07:32:30;98728.78;;;27.19;100.00
26087;BME280;13851;43.434;28.338;2022-09-17T07:34:56;98743.53;;;27.47;100.00
26087;BME280;13851;43.434;28.338;2022-09-17T07:37:21;98753.53;;;27.31;100.00
26087;BME280;13851;43.434;28.338;2022-09-17T07:39:47;98627.13;;;26.59;100.00
26087;BME280;13851;43.434;28.338;2022-09-17T07:42:12;98707.47;;;27.05;100.00
26087;BME280;13851;43.434;28.338;2022-09-17T07:44:38;98765.31;;;27.33;100.00
26087;BME280;13851;43.434;28.338;2022-09-17T07:47:06;98594.50;;;26.49;100.00
26087;BME280;13851;43.434;28.338;2022-09-17T07:49:32;98765.94;;;27.75;100.00
26087;BME280;13851;43.434;28.338;2022-09-17T07:51:57;98764.03;;;27.93;100.00
26087;BME280;13851;43.434;28.338;2022-09-17T07:54:24;98747.00;;;27.44;100.00
26087;BME280;13851;43.434;28.338;2022-09-17T07:56:50;98618.81;;;26.76;100.00
26087;BME280;13851;43.434;28.338;2022-09-17T07:59:16;98760.84;;;27.63;100.00
26087;BME280;13851;43.434;28.338;2022-09-17T08:01:41;98765.94;;;27.75;100.00
26087;BME280;13851;43.434;28.338;2022-09-17T08:04:07;98607.59;;;26.99;100.00
26087;BME280;13851;43.434;28.338;2022-09-17T08:06:36;98761.50;;;27.83;100.00
26087;BME280;13851;43.434;28.338;2022-09-17T08:09:02;98713.38;;;27.39;100.00
26087;BME280;13851;43.434;28.338;2022-09-17T08:11:29;98735.69;;;27.36;100.00
26087;BME280;13851;43.434;28.338;2022-09-17T08:13:55;98737.34;;;27.37;100.00
26087;BME280;13851;43.434;28.338;2022-09-17T08:16:21;98764.31;;;27.60;100.00
26087;BME280;13851;43.434;28.338;2022-09-17T08:18:48;98765.28;;;27.78;100.00
26087;BME280;13851;43.434;28.338;2022-09-17T08:21:16;98769.91;;;28.05;100.00
26087;BME280;13851;43.434;28.338;2022-09-17T08:23:43;98760.75;;;28.39;100.00
26087;BME280;13851;43.434;28.338;2022-09-17T08:26:14;98759.59;;;28.40;100.00
26087;BME280;13851;43.434;28.338;2022-09-17T08:28:44;98752.69;;;28.46;100.00
26087;BME280;13851;43.434;28.338;2022-09-17T08:31:10;98755.69;;;28.19;100.00
26087;BME280;13851;43.434;28.338;2022-09-17T08:33:38;98741.22;;;28.43;100.00
26087;BME280;13851;43.434;28.338;2022-09-17T08:36:05;98743.28;;;28.77;100.00
26087;BME280;13851;43.434;28.338;2022-09-17T08:38:32;98750.75;;;28.90;100.00
26087;BME280;13851;43.434;28.338;2022-09-17T08:46:13;98733.28;;;28.36;100.00
26087;BME280;13851;43.434;28.338;2022-09-17T08:48:49;98734.91;;;28.37;100.00
26087;BME280;13851;43.434;28.338;2022-09-17T08:54:23;98730.47;;;28.05;100.00
26087;BME280;13851;43.434;28.338;2022-09-17T09:02:31;98706.59;;;28.42;100.00
26087;BME280;13851;43.434;28.338;2022-09-17T09:05:17;98702.91;;;28.33;100.00
26087;BME280;13851;43.434;28.338;2022-09-17T09:07:49;98659.69;;;28.38;100.00
26087;BME280;13851;43.434;28.338;2022-09-17T09:10:26;98657.63;;;28.12;100.00
26087;BME280;13851;43.434;28.338;2022-09-17T09:12:54;98695.19;;;28.73;100.00
26087;BME280;13851;43.434;28.338;2022-09-17T09:15:41;98651.91;;;28.61;100.00
26087;BME280;13851;43.434;28.338;2022-09-17T09:18:17;98497.97;;;26.99;100.00
26087;BME280;13851;43.434;28.338;2022-09-17T09:20:53;98621.41;;;27.71;100.00
26087;BME280;13851;43.434;28.338;2022-09-17T09:23:46;98536.50;;;26.98;100.00
26087;BME280;13851;43.434;28.338;2022-09-17T09:26:19;98668.28;;;27.84;100.00
26087;BME280;13851;43.434;28.338;2022-09-17T09:28:55;98679.25;;;27.63;100.00
26087;BME280;13851;43.434;28.338;2022-09-17T09:34:02;98656.75;;;27.32;100.00
26087;BME280;13851;43.434;28.338;2022-09-17T09:36:31;98644.69;;;26.87;100.00
26087;BME280;13851;43.434;28.338;2022-09-17T09:39:14;98631.81;;;26.36;100.00
26087;BME280;13851;43.434;28.338;2022-09-17T09:41:46;98687.50;;;26.48;100.00
26087;BME280;13851;43.434;28.338;2022-09-17T09:44:13;98665.84;;;26.48;100.00
26087;BME280;13851;43.434;28.338;2022-09-17T09:52:43;98679.00;;;25.98;100.00
26087;BME280;13851;43.434;28.338;2022-09-17T09:58:04;98419.97;;;24.23;100.00
26087;BME280;13851;43.434;28.338;2022-09-17T10:00:38;98657.34;;;25.57;100.00
26087;BME280;13851;43.434;28.338;2022-09-17T10:03:22;98648.91;;;25.43;100.00
26087;BME280;13851;43.434;28.338;2022-09-17T10:06:08;98683.53;;;25.66;100.00
26087;BME280;13851;43.434;28.338;2022-09-17T10:08:42;98677.25;;;25.41;100.00
26087;BME280;13851;43.434;28.338;2022-09-17T10:11:26;98500.88;;;24.71;100.00
26087;BME280;13851;43.434;28.338;2022-09-17T10:13:52;98594.81;;;25.70;100.00
26087;BME280;13851;43.434;28.338;2022-09-17T10:16:37;98699.38;;;26.17;100.00
26087;BME280;13851;43.434;28.338;2022-09-17T10:21:33;98685.31;;;26.17;100.00
26087;BME280;13851;43.434;28.338;2022-09-17T10:24:04;98673.66;;;25.55;100.00
26087;BME280;13851;43.434;28.338;2022-09-17T10:26:35;98681.69;;;25.89;100.00
26087;BME280;13851;43.434;28.338;2022-09-17T10:29:10;98538.28;;;25.08;100.00
26087;BME280;13851;43.434;28.338;2022-09-17T10:31:51;98688.41;;;25.74;100.00
26087;BME280;13851;43.434;28.338;2022-09-17T10:34:25;98675.47;;;25.92;100.00
26087;BME280;13851;43.434;28.338;2022-09-17T10:36:52;98667.09;;;25.73;100.00
26087;BME280;13851;43.434;28.338;2022-09-17T10:39:19;98651.34;;;25.77;100.00
26087;BME280;13851;43.434;28.338;2022-09-17T10:42:02;98648.34;;;26.01;100.00
26087;BME280;13851;43.434;28.338;2022-09-17T10:44:30;98661.00;;;25.99;100.00
26087;BME280;13851;43.434;28.338;2022-09-17T10:47:13;98650.59;;;26.13;100.00
26087;BME280;13851;43.434;28.338;2022-09-17T10:49:47;98660.72;;;26.00;100.00
26087;BME280;13851;43.434;28.338;2022-09-17T10:57:48;98630.94;;;25.58;100.00
26087;BME280;13851;43.434;28.338;2022-09-17T11:00:20;98613.94;;;25.54;100.00
26087;BME280;13851;43.434;28.338;2022-09-17T11:05:52;98605.09;;;25.88;100.00
26087;BME280;13851;43.434;28.338;2022-09-17T11:08:36;98593.16;;;25.97;100.00
26087;BME280;13851;43.434;28.338;2022-09-17T11:22:22;98589.53;;;26.68;100.00
26087;BME280;13851;43.434;28.338;2022-09-17T11:25:02;98578.97;;;26.74;100.00
26087;BME280;13851;43.434;28.338;2022-09-17T11:36:04;98623.41;;;25.86;100.00
26087;BME280;13851;43.434;28.338;2022-09-17T11:38:39;98620.78;;;26.03;100.00
26087;BME280;13851;43.434;28.338;2022-09-17T11:41:30;98485.06;;;25.08;100.00
26087;BME280;13851;43.434;28.338;2022-09-17T11:44:21;98506.50;;;25.67;100.00
26087;BME280;13851;43.434;28.338;2022-09-17T11:46:57;98579.84;;;26.38;100.00
26087;BME280;13851;43.434;28.338;2022-09-17T11:49:44;98440.47;;;25.75;100.00
26087;BME280;13851;43.434;28.338;2022-09-17T11:57:38;98407.31;;;25.27;100.00
26087;BME280;13851;43.434;28.338;2022-09-17T12:02:51;98570.44;;;26.57;100.00
26087;BME280;13851;43.434;28.338;2022-09-17T12:13:04;98557.69;;;26.37;100.00
26087;BME280;13851;43.434;28.338;2022-09-17T12:15:37;98542.66;;;26.19;100.00
26087;BME280;13851;43.434;28.338;2022-09-17T12:20:35;98589.63;;;25.91;100.00
26087;BME280;13851;43.434;28.338;2022-09-17T12:23:05;98423.50;;;25.03;100.00
26087;BME280;13851;43.434;28.338;2022-09-17T12:25:49;98543.03;;;26.04;100.00
26087;BME280;13851;43.434;28.338;2022-09-17T12:28:34;98553.34;;;25.95;100.00
26087;BME280;13851;43.434;28.338;2022-09-17T12:31:20;98549.09;;;25.97;100.00
26087;BME280;13851;43.434;28.338;2022-09-17T12:34:04;98527.38;;;25.89;100.00
26087;BME280;13851;43.434;28.338;2022-09-17T12:36:41;98519.00;;;25.75;100.00
26087;BME280;13851;43.434;28.338;2022-09-17T12:45:01;98533.91;;;25.98;100.00
26087;BME280;13851;43.434;28.338;2022-09-17T12:50:20;98522.00;;;26.15;100.00
26087;BME280;13851;43.434;28.338;2022-09-17T12:52:55;98532.09;;;26.16;100.00
26087;BME280;13851;43.434;28.338;2022-09-17T12:55:53;98512.00;;;26.23;100.00
26087;BME280;13851;43.434;28.338;2022-09-17T12:58:38;98509.41;;;26.49;100.00
26087;BME280;13851;43.434;28.338;2022-09-17T13:04:10;98558.88;;;26.22;100.00
26087;BME280;13851;43.434;28.338;2022-09-17T13:09:38;98503.66;;;26.31;100.00
26087;BME280;13851;43.434;28.338;2022-09-17T13:16:02;98496.94;;;25.82;100.00
26087;BME280;13851;43.434;28.338;2022-09-17T13:18:37;98501.72;;;25.68;100.00
26087;BME280;13851;43.434;28.338;2022-09-17T13:21:21;98467.59;;;25.38;100.00
26087;BME280;13851;43.434;28.338;2022-09-17T13:23:49;98476.09;;;25.47;100.00
26087;BME280;13851;43.434;28.338;2022-09-17T13:26:18;98505.91;;;25.57;100.00
26087;BME280;13851;43.434;28.338;2022-09-17T13:28:49;98375.78;;;24.80;100.00
26087;BME280;13851;43.434;28.338;2022-09-17T13:31:57;98487.44;;;25.56;100.00
26087;BME280;13851;43.434;28.338;2022-09-17T13:36:51;98535.50;;;25.63;100.00
26087;BME280;13851;43.434;28.338;2022-09-17T13:45:05;98561.34;;;26.37;100.00
26087;BME280;13851;43.434;28.338;2022-09-17T13:47:33;98503.69;;;25.95;100.00
26087;BME280;13851;43.434;28.338;2022-09-17T13:50:09;98542.09;;;26.31;100.00
26087;BME280;13851;43.434;28.338;2022-09-17T13:52:45;98532.09;;;26.38;100.00
26087;BME280;13851;43.434;28.338;2022-09-17T13:55:38;98542.09;;;26.44;100.00
26087;BME280;13851;43.434;28.338;2022-09-17T13:58:12;98547.06;;;26.48;100.00
26087;BME280;13851;43.434;28.338;2022-09-17T14:08:47;98677.41;;;26.47;100.00
26087;BME280;13851;43.434;28.338;2022-09-17T14:30:35;98801.81;;;23.49;100.00
26087;BME280;13851;43.434;28.338;2022-09-17T14:35:41;98858.94;;;23.38;100.00
26087;BME280;13851;43.434;28.338;2022-09-17T14:38:39;98921.19;;;23.48;100.00
26087;BME280;13851;43.434;28.338;2022-09-17T14:46:15;98750.69;;;23.48;100.00
26087;BME280;13851;43.434;28.338;2022-09-17T14:48:43;98771.41;;;23.76;100.00
26087;BME280;13851;43.434;28.338;2022-09-17T14:54:16;98715.97;;;23.83;100.00
26087;BME280;13851;43.434;28.338;2022-09-17T14:56:49;98644.78;;;23.95;100.00
26087;BME280;13851;43.434;28.338;2022-09-17T14:59:26;98668.91;;;24.09;100.00
26087;BME280;13851;43.434;28.338;2022-09-17T15:01:53;98624.25;;;24.23;100.00
26087;BME280;13851;43.434;28.338;2022-09-17T15:06:50;98530.03;;;24.37;100.00
26087;BME280;13851;43.434;28.338;2022-09-17T15:09:25;98544.59;;;24.34;100.00
26087;BME280;13851;43.434;28.338;2022-09-17T15:11:54;98567.22;;;24.57;100.00
26087;BME280;13851;43.434;28.338;2022-09-17T15:14:28;98569.31;;;24.65;100.00
26087;BME280;13851;43.434;28.338;2022-09-17T15:16:56;98564.44;;;24.71;100.00
26087;BME280;13851;43.434;28.338;2022-09-17T15:19:26;98549.22;;;24.77;100.00
26087;BME280;13851;43.434;28.338;2022-09-17T15:21:58;98559.31;;;24.92;100.00
26087;BME280;13851;43.434;28.338;2022-09-17T15:25:04;98551.75;;;25.06;100.00
26087;BME280;13851;43.434;28.338;2022-09-17T15:27:38;98581.75;;;25.05;100.00
26087;BME280;13851;43.434;28.338;2022-09-17T15:30:18;98554.72;;;25.14;100.00
26087;BME280;13851;43.434;28.338;2022-09-17T15:32:56;98563.34;;;25.32;100.00
26087;BME280;13851;43.434;28.338;2022-09-17T15:35:35;98571.34;;;25.52;100.00
26087;BME280;13851;43.434;28.338;2022-09-17T15:38:24;98575.69;;;25.72;100.00
26087;BME280;13851;43.434;28.338;2022-09-17T15:40:51;98530.84;;;25.45;100.00
26087;BME280;13851;43.434;28.338;2022-09-17T15:45:52;98382.03;;;24.77;100.00
26087;BME280;13851;43.434;28.338;2022-09-17T15:50:58;98548.34;;;26.05;100.00
26087;BME280;13851;43.434;28.338;2022-09-17T15:53:30;98562.84;;;26.21;100.00
26087;BME280;13851;43.434;28.338;2022-09-17T16:09:01;98555.72;;;26.01;100.00
26087;BME280;13851;43.434;28.338;2022-09-17T16:11:28;98551.41;;;25.81;100.00